Time;durP1;ratioP1;P1;durP2;ratioP2;P2;SDS_P1;SDS_P2;PMS_P1;PMS_P2;Temp;Humidity;BMP_temperature;BMP_pressure;BME280_temperature;BME280_humidity;BME280_pressure;Samples;Min_cycle;Max_cycle;Signal;HPM_P1;HPM_P2
2022/01/26 00:05:53;;;;;;;;;;;;;;;21.56;14.25;98438.59;4794362;29;1012;-76
2022/01/26 00:26:30;;;;;;;;;;;;;;;22.02;13.55;98407.69;4725032;30;1043;-76
2022/01/26 00:40:40;;;;;;;;;;;;;;;21.56;14.09;98404.59;4773807;29;1087;-76
2022/01/26 00:43:21;;;;;;;;;;;;;;;21.62;14.07;98399.25;4846945;29;963;-76
2022/01/26 00:45:49;;;;;;;;;;;;;;;21.36;14.19;98408.66;4856012;29;1010;-76
2022/01/26 00:48:20;;;;;;;;;;;;;;;21.84;13.96;98408.88;4843199;29;965;-76
2022/01/26 00:50:50;;;;;;;;;;;;;;;21.70;14.07;98395.00;4860062;29;1998;-76
2022/01/26 00:53:15;;;;;;;;;;;;;;;21.73;13.80;98396.97;4882300;29;962;-76
2022/01/26 00:55:41;;;;;;;;;;;;;;;22.01;13.75;98389.09;4889682;29;999;-76
2022/01/26 00:58:06;;;;;;;;;;;;;;;21.70;13.92;98392.16;4888633;29;1034;-76
2022/01/26 01:00:32;;;;;;;;;;;;;;;22.20;13.45;98384.66;4877669;29;1030;-75
2022/01/26 01:02:58;;;;;;;;;;;;;;;21.77;14.00;98392.03;4883317;29;1011;-76
2022/01/26 01:05:28;;;;;;;;;;;;;;;22.05;13.60;98389.81;4870297;29;1066;-76
2022/01/26 01:08:02;;;;;;;;;;;;;;;21.96;13.78;98386.78;4869787;29;1013;-76
2022/01/26 01:10:27;;;;;;;;;;;;;;;22.18;13.59;98385.09;4964526;29;1906;-76
2022/01/26 01:12:56;;;;;;;;;;;;;;;23.30;12.44;98381.91;4964055;28;975;-76
2022/01/26 01:15:24;;;;;;;;;;;;;;;22.49;13.20;98377.09;4984099;28;1067;-76
2022/01/26 01:17:53;;;;;;;;;;;;;;;21.97;13.78;98371.41;4984283;28;1063;-76
2022/01/26 01:30:36;;;;;;;;;;;;;;;22.13;13.27;98367.84;5042668;28;1906;-76
2022/01/26 01:33:10;;;;;;;;;;;;;;;22.39;13.46;98368.84;5022438;28;1003;-76
2022/01/26 01:35:37;;;;;;;;;;;;;;;22.98;12.76;98364.94;5019973;28;976;-76
2022/01/26 01:38:11;;;;;;;;;;;;;;;22.54;13.06;98358.75;5003297;28;994;-76
2022/01/26 01:40:37;;;;;;;;;;;;;;;21.97;13.64;98348.72;5003754;28;1046;-76
2022/01/26 01:43:03;;;;;;;;;;;;;;;22.09;13.61;98351.66;4983135;28;956;-76
2022/01/26 01:45:29;;;;;;;;;;;;;;;21.98;13.68;98344.66;4984106;28;968;-76
2022/01/26 01:47:55;;;;;;;;;;;;;;;22.27;13.61;98358.97;4983167;28;1180;-76
2022/01/26 01:50:20;;;;;;;;;;;;;;;22.10;13.61;98353.28;4983417;28;1894;-76
2022/01/26 01:52:46;;;;;;;;;;;;;;;22.59;13.36;98344.03;4983771;28;1198;-76
2022/01/26 01:55:11;;;;;;;;;;;;;;;22.31;13.47;98351.97;4982733;28;1007;-76
2022/01/26 01:57:37;;;;;;;;;;;;;;;22.07;13.25;98353.31;4984245;28;917;-76
2022/01/26 02:00:03;;;;;;;;;;;;;;;21.73;13.67;98346.00;4981931;28;964;-76
2022/01/26 02:02:30;;;;;;;;;;;;;;;21.82;13.92;98340.53;4983869;28;1003;-76
2022/01/26 02:04:55;;;;;;;;;;;;;;;21.91;13.56;98344.78;4962707;28;1032;-76
2022/01/26 02:07:20;;;;;;;;;;;;;;;21.54;13.92;98339.09;4964829;28;1075;-76
2022/01/26 02:09:46;;;;;;;;;;;;;;;21.70;13.84;98335.53;4962003;28;1902;-76
2022/01/26 02:12:13;;;;;;;;;;;;;;;21.79;13.74;98338.56;4995687;28;1036;-76
2022/01/26 02:14:43;;;;;;;;;;;;;;;22.39;13.49;98335.63;5032996;28;1180;-76
2022/01/26 02:17:49;;;;;;;;;;;;;;;22.28;13.09;98327.38;5044598;28;821;-76
2022/01/26 02:20:32;;;;;;;;;;;;;;;22.24;13.60;98329.50;5038162;28;1012;-76
2022/01/26 02:53:04;;;;;;;;;;;;;;;21.72;13.56;98327.41;5002232;28;954;-76
2022/01/26 02:55:45;;;;;;;;;;;;;;;22.00;13.57;98325.16;5002219;28;938;-76
2022/01/26 02:58:41;;;;;;;;;;;;;;;22.21;13.12;98324.69;5000183;28;1015;-76
2022/01/26 03:03:53;;;;;;;;;;;;;;;21.69;13.49;98316.94;4999243;28;1061;-76
2022/01/26 03:06:26;;;;;;;;;;;;;;;21.89;13.51;98314.09;5044796;28;1114;-76
2022/01/26 03:08:58;;;;;;;;;;;;;;;22.46;13.05;98317.63;5040851;28;913;-76
2022/01/26 03:11:27;;;;;;;;;;;;;;;21.98;13.32;98322.00;5044774;28;1968;-76
2022/01/26 03:14:02;;;;;;;;;;;;;;;22.00;13.33;98316.66;5017702;28;1499;-76
2022/01/26 03:16:42;;;;;;;;;;;;;;;22.27;13.05;98317.25;5022606;28;957;-76
2022/01/26 03:28:10;;;;;;;;;;;;;;;22.18;13.29;98311.41;5021451;28;965;-76
2022/01/26 03:30:04;;;;;;;;;;;;;;;21.57;13.86;98314.81;4960667;28;1895;-76
2022/01/26 03:35:01;;;;;;;;;;;;;;;22.18;13.41;98319.13;4960728;28;993;-76
2022/01/26 03:37:33;;;;;;;;;;;;;;;21.39;14.21;98318.00;4947477;28;947;-76
2022/01/26 03:39:59;;;;;;;;;;;;;;;21.31;14.22;98314.53;4960618;28;930;-76
2022/01/26 03:42:24;;;;;;;;;;;;;;;21.49;14.03;98319.78;4963525;28;889;-76
2022/01/26 03:44:50;;;;;;;;;;;;;;;22.09;13.20;98305.53;4979800;28;986;-76
2022/01/26 03:47:15;;;;;;;;;;;;;;;21.91;13.54;98313.63;5001435;28;1092;-76
2022/01/26 03:49:41;;;;;;;;;;;;;;;21.73;13.53;98311.22;4999577;28;1979;-76
2022/01/26 03:52:07;;;;;;;;;;;;;;;21.70;13.55;98301.53;5001996;28;998;-76
2022/01/26 03:54:32;;;;;;;;;;;;;;;21.54;13.86;98316.47;4999224;28;888;-76
2022/01/26 03:56:57;;;;;;;;;;;;;;;21.62;13.76;98317.13;5001216;28;1200;-76
2022/01/26 03:59:23;;;;;;;;;;;;;;;21.84;13.79;98318.22;4982968;28;1009;-76
2022/01/26 04:01:48;;;;;;;;;;;;;;;21.95;13.65;98317.19;5014347;28;1158;-76
2022/01/26 04:04:14;;;;;;;;;;;;;;;22.01;13.41;98318.25;5035246;28;1118;-76
2022/01/26 04:06:40;;;;;;;;;;;;;;;21.73;13.49;98312.00;5020766;28;924;-76
2022/01/26 04:09:07;;;;;;;;;;;;;;;21.78;13.56;98317.16;5019295;28;958;-76
2022/01/26 04:13:59;;;;;;;;;;;;;;;21.99;13.52;98323.56;5017909;28;970;-76
2022/01/26 04:16:24;;;;;;;;;;;;;;;22.27;13.42;98328.59;5021532;28;1191;-76
2022/01/26 04:18:50;;;;;;;;;;;;;;;22.01;13.63;98321.88;5017651;28;943;-76
2022/01/26 04:23:49;;;;;;;;;;;;;;;22.16;13.46;98325.22;5017620;28;1024;-76
2022/01/26 04:26:18;;;;;;;;;;;;;;;22.05;13.36;98321.81;5022787;28;979;-76
2022/01/26 04:28:51;;;;;;;;;;;;;;;21.94;13.45;98324.09;5017668;28;1052;-76
2022/01/26 04:31:19;;;;;;;;;;;;;;;21.98;13.49;98317.13;5022251;28;1970;-76
2022/01/26 04:33:45;;;;;;;;;;;;;;;21.47;13.72;98324.31;5024339;28;1209;-76
2022/01/26 04:36:14;;;;;;;;;;;;;;;21.32;13.93;98321.78;5063948;28;1245;-76
2022/01/26 04:38:48;;;;;;;;;;;;;;;22.09;13.46;98312.00;5059443;28;1244;-76
2022/01/26 04:43:49;;;;;;;;;;;;;;;22.17;13.32;98315.47;5059289;28;948;-76
2022/01/26 04:46:15;;;;;;;;;;;;;;;22.23;13.34;98322.22;5064363;28;821;-76
2022/01/26 04:48:40;;;;;;;;;;;;;;;21.97;13.25;98321.19;5058660;28;1749;-75
2022/01/26 04:51:05;;;;;;;;;;;;;;;21.67;13.58;98325.09;5063284;28;1971;-76
2022/01/26 04:53:31;;;;;;;;;;;;;;;22.38;13.38;98330.38;5059679;28;1036;-76
2022/01/26 04:55:57;;;;;;;;;;;;;;;22.43;13.02;98329.84;5063293;28;947;-76
2022/01/26 04:58:22;;;;;;;;;;;;;;;21.59;13.66;98323.63;5063110;28;939;-78
2022/01/26 05:00:48;;;;;;;;;;;;;;;21.65;13.90;98333.22;5068277;28;1013;-77
2022/01/26 05:03:13;;;;;;;;;;;;;;;22.01;13.44;98327.56;5075486;28;1806;-77
2022/01/26 05:05:39;;;;;;;;;;;;;;;21.73;13.67;98329.00;5068846;28;1643;-77
2022/01/26 05:08:04;;;;;;;;;;;;;;;22.07;13.29;98330.66;5062646;28;1346;-77
2022/01/26 05:10:30;;;;;;;;;;;;;;;22.04;13.67;98325.88;5066077;28;1902;-77
2022/01/26 05:12:55;;;;;;;;;;;;;;;22.47;13.18;98336.22;5062661;28;1020;-78
2022/01/26 05:15:23;;;;;;;;;;;;;;;21.69;13.55;98327.47;5039153;28;1664;-77
2022/01/26 05:17:48;;;;;;;;;;;;;;;22.21;13.45;98329.56;5024108;28;985;-77
2022/01/26 05:20:14;;;;;;;;;;;;;;;22.01;13.54;98324.72;5023243;28;979;-77
2022/01/26 05:22:41;;;;;;;;;;;;;;;21.35;13.94;98327.78;5023815;28;952;-77
2022/01/26 05:25:06;;;;;;;;;;;;;;;22.05;13.61;98330.31;5022987;28;909;-77
2022/01/26 05:27:32;;;;;;;;;;;;;;;21.92;13.82;98329.41;5024384;28;1246;-77
2022/01/26 05:29:58;;;;;;;;;;;;;;;21.65;13.88;98316.22;5030697;28;1900;-78
2022/01/26 05:32:24;;;;;;;;;;;;;;;22.32;13.29;98313.88;5044570;28;1006;-77
2022/01/26 05:34:49;;;;;;;;;;;;;;;21.75;13.94;98320.06;5042525;28;1046;-77
2022/01/26 05:37:15;;;;;;;;;;;;;;;22.55;13.38;98327.09;5046225;28;1099;-76
2022/01/26 05:39:40;;;;;;;;;;;;;;;23.16;12.80;98311.34;5045319;28;1031;-77
2022/01/26 05:42:06;;;;;;;;;;;;;;;22.73;12.69;98315.28;5047811;28;889;-77
2022/01/26 05:44:32;;;;;;;;;;;;;;;22.09;13.29;98317.66;5037617;28;1652;-77
2022/01/26 05:46:57;;;;;;;;;;;;;;;22.26;13.09;98320.53;5048309;28;990;-77
2022/01/26 05:49:23;;;;;;;;;;;;;;;22.31;13.27;98328.50;5048095;28;1087;-77
2022/01/26 05:51:50;;;;;;;;;;;;;;;22.44;13.37;98326.56;5048395;28;1895;-77
2022/01/26 05:54:15;;;;;;;;;;;;;;;22.43;13.36;98318.50;5047727;28;967;-77
2022/01/26 05:56:42;;;;;;;;;;;;;;;22.41;13.28;98321.00;5050136;28;917;-77
2022/01/26 05:59:10;;;;;;;;;;;;;;;22.38;13.59;98322.66;5045986;28;1818;-76
2022/01/26 06:01:36;;;;;;;;;;;;;;;22.30;13.34;98333.38;5049847;28;1254;-77
2022/01/26 06:04:01;;;;;;;;;;;;;;;22.32;13.66;98325.22;5046959;28;826;-76
2022/01/26 06:06:26;;;;;;;;;;;;;;;22.54;13.41;98333.22;5050184;28;1021;-77
2022/01/26 06:08:52;;;;;;;;;;;;;;;22.68;13.33;98334.88;5030959;28;1874;-77
2022/01/26 06:11:17;;;;;;;;;;;;;;;22.54;13.61;98336.06;5030015;28;1906;-77
2022/01/26 06:13:43;;;;;;;;;;;;;;;22.68;13.05;98338.50;5026958;28;929;-77
2022/01/26 06:16:08;;;;;;;;;;;;;;;22.54;13.55;98336.84;5066225;28;1149;-77
2022/01/26 06:18:34;;;;;;;;;;;;;;;22.56;13.21;98340.03;5068222;28;1640;-77
2022/01/26 06:20:59;;;;;;;;;;;;;;;22.56;13.33;98339.25;5090859;28;953;-77
2022/01/26 06:23:25;;;;;;;;;;;;;;;22.60;13.22;98334.28;5086653;28;925;-77
2022/01/26 06:25:55;;;;;;;;;;;;;;;22.43;13.64;98341.19;5071663;28;937;-77
2022/01/26 06:28:21;;;;;;;;;;;;;;;22.36;13.39;98342.94;5086476;28;937;-77
2022/01/26 06:30:55;;;;;;;;;;;;;;;22.40;13.74;98342.09;5089998;28;1913;-77
2022/01/26 06:33:21;;;;;;;;;;;;;;;22.31;13.54;98334.97;5021590;28;1709;-77
2022/01/26 06:35:47;;;;;;;;;;;;;;;22.29;13.77;98331.78;4969583;29;1032;-77
2022/01/26 06:38:13;;;;;;;;;;;;;;;22.23;13.91;98336.41;4934489;28;940;-77
2022/01/26 06:40:39;;;;;;;;;;;;;;;22.29;13.60;98342.34;4969460;29;917;-77
2022/01/26 06:43:10;;;;;;;;;;;;;;;22.38;13.89;98338.88;4967687;29;893;-77
2022/01/26 06:45:41;;;;;;;;;;;;;;;22.76;13.55;98342.78;4968897;29;1027;-77
2022/01/26 06:50:38;;;;;;;;;;;;;;;22.56;13.68;98337.19;4968115;29;1977;-76
2022/01/26 06:53:03;;;;;;;;;;;;;;;22.54;13.78;98336.06;4967395;29;982;-77
2022/01/26 06:55:29;;;;;;;;;;;;;;;22.52;13.78;98333.66;4968278;29;1047;-77
2022/01/26 06:57:55;;;;;;;;;;;;;;;22.57;13.68;98335.16;4966781;29;952;-77
2022/01/26 07:00:21;;;;;;;;;;;;;;;22.54;13.43;98330.38;4966949;29;931;-77
2022/01/26 07:02:46;;;;;;;;;;;;;;;22.56;13.86;98319.38;4935600;29;1672;-77
2022/01/26 07:05:12;;;;;;;;;;;;;;;22.53;13.78;98317.44;4999878;28;1010;-77
2022/01/26 07:07:37;;;;;;;;;;;;;;;22.50;13.57;98321.16;5041104;28;915;-77
2022/01/26 07:10:03;;;;;;;;;;;;;;;22.52;13.73;98319.47;5048807;28;1906;-76
2022/01/26 07:12:29;;;;;;;;;;;;;;;22.54;13.79;98324.72;5066330;28;1063;-77
2022/01/26 07:23:17;;;;;;;;;;;;;;;22.43;13.84;98316.44;4984392;28;939;-76
2022/01/26 07:25:42;;;;;;;;;;;;;;;22.28;14.18;98313.19;4987236;28;1042;-77
2022/01/26 07:28:07;;;;;;;;;;;;;;;22.33;14.09;98318.34;4985470;28;1062;-76
2022/01/26 07:30:36;;;;;;;;;;;;;;;22.40;13.84;98316.56;4987110;28;1950;-77
2022/01/26 07:33:02;;;;;;;;;;;;;;;22.51;13.83;98325.59;4993521;28;1579;-77
2022/01/26 07:35:27;;;;;;;;;;;;;;;22.49;14.01;98317.53;5005644;28;978;-77
2022/01/26 07:37:57;;;;;;;;;;;;;;;22.53;13.74;98312.56;4989714;28;1883;-77
2022/01/26 07:40:22;;;;;;;;;;;;;;;22.27;14.37;98293.78;5006159;28;907;-77
2022/01/26 07:42:48;;;;;;;;;;;;;;;22.31;14.15;98309.47;5010166;28;1100;-77
2022/01/26 07:45:14;;;;;;;;;;;;;;;22.37;13.82;98315.41;5025700;28;1720;-77
2022/01/26 07:47:40;;;;;;;;;;;;;;;22.12;14.00;98316.00;5039879;28;1742;-77
2022/01/26 07:50:07;;;;;;;;;;;;;;;22.12;14.41;98316.00;5037805;28;1993;-77
2022/01/26 07:52:37;;;;;;;;;;;;;;;22.18;14.06;98319.91;5045287;28;1258;-77
2022/01/26 07:55:03;;;;;;;;;;;;;;;22.34;13.83;98316.31;4968120;28;1257;-77
2022/01/26 07:57:29;;;;;;;;;;;;;;;22.38;13.92;98319.03;4968000;29;1101;-77
2022/01/26 07:59:54;;;;;;;;;;;;;;;22.55;14.05;98312.94;5000566;28;977;-77
2022/01/26 08:02:23;;;;;;;;;;;;;;;22.12;14.28;98320.88;5026120;28;1902;-76
2022/01/26 08:04:48;;;;;;;;;;;;;;;22.47;14.02;98324.88;5023784;28;965;-77
2022/01/26 08:07:14;;;;;;;;;;;;;;;22.42;14.04;98329.03;5012355;28;802;-77
2022/01/26 08:09:43;;;;;;;;;;;;;;;22.44;14.08;98332.25;4984322;28;1021;-77
2022/01/26 08:12:09;;;;;;;;;;;;;;;22.42;13.88;98328.25;4986315;28;1061;-77
2022/01/26 08:14:35;;;;;;;;;;;;;;;22.59;13.97;98338.38;5001050;28;1180;-77
2022/01/26 08:17:02;;;;;;;;;;;;;;;22.97;13.38;98337.81;4986686;28;938;-78
2022/01/26 08:19:27;;;;;;;;;;;;;;;23.20;13.50;98348.13;4984772;28;958;-77
2022/01/26 08:21:58;;;;;;;;;;;;;;;23.04;13.21;98334.78;5000319;28;1654;-77
2022/01/26 08:24:24;;;;;;;;;;;;;;;22.21;14.36;98340.91;5023137;28;941;-77
2022/01/26 08:26:50;;;;;;;;;;;;;;;21.88;14.64;98328.69;5042862;28;881;-77
2022/01/26 08:29:20;;;;;;;;;;;;;;;22.33;14.21;98329.69;5044692;28;1047;-77
2022/01/26 08:31:46;;;;;;;;;;;;;;;23.27;13.51;98320.34;5025574;28;1993;-77
2022/01/26 08:34:11;;;;;;;;;;;;;;;22.61;13.67;98324.53;5023420;28;1000;-77
2022/01/26 08:36:37;;;;;;;;;;;;;;;22.18;14.15;98319.91;5033798;28;1506;-77
2022/01/26 08:39:02;;;;;;;;;;;;;;;22.39;14.15;98323.47;5043427;28;981;-77
2022/01/26 08:41:28;;;;;;;;;;;;;;;23.12;13.56;98322.00;5046302;28;1800;-78
2022/01/26 08:43:54;;;;;;;;;;;;;;;22.51;13.79;98326.38;5042484;28;1759;-77
2022/01/26 08:46:19;;;;;;;;;;;;;;;22.14;14.39;98319.19;5046686;28;1054;-77
2022/01/26 08:48:44;;;;;;;;;;;;;;;22.34;14.21;98311.44;5041650;28;1669;-77
2022/01/26 08:51:10;;;;;;;;;;;;;;;23.06;13.47;98320.94;5046129;28;1985;-77
2022/01/26 08:53:35;;;;;;;;;;;;;;;22.62;13.74;98314.78;5042492;28;974;-77
2022/01/26 08:56:01;;;;;;;;;;;;;;;22.22;14.20;98316.97;5046521;28;1751;-77
2022/01/26 08:58:26;;;;;;;;;;;;;;;22.30;14.35;98309.91;5007767;28;1678;-77
2022/01/26 09:00:53;;;;;;;;;;;;;;;22.70;14.04;98306.88;5045430;28;2072;-77
2022/01/26 09:03:18;;;;;;;;;;;;;;;22.87;13.85;98297.88;5071308;28;1864;-77
2022/01/26 09:05:43;;;;;;;;;;;;;;;22.30;14.25;98293.69;5087594;28;889;-77
2022/01/26 09:08:09;;;;;;;;;;;;;;;22.02;14.42;98302.84;5067342;28;1702;-77
2022/01/26 09:10:37;;;;;;;;;;;;;;;22.59;13.87;98305.13;5067498;28;1982;-76
2022/01/26 09:13:02;;;;;;;;;;;;;;;22.99;13.61;98312.59;5066297;28;972;-77
2022/01/26 09:15:29;;;;;;;;;;;;;;;22.76;13.79;98297.38;5061690;28;1275;-77
2022/01/26 09:17:55;;;;;;;;;;;;;;;22.48;14.03;98307.41;5064472;28;936;-77
2022/01/26 09:20:21;;;;;;;;;;;;;;;22.23;14.12;98302.38;5067822;28;1954;-77
2022/01/26 09:22:46;;;;;;;;;;;;;;;22.50;13.89;98295.66;5069369;28;923;-77
2022/01/26 09:25:12;;;;;;;;;;;;;;;22.33;14.25;98298.50;5050428;28;994;-77
2022/01/26 09:27:37;;;;;;;;;;;;;;;22.35;14.17;98298.03;5069079;28;883;-76
2022/01/26 09:30:03;;;;;;;;;;;;;;;22.21;14.32;98295.56;5067299;28;1906;-78
2022/01/26 09:32:29;;;;;;;;;;;;;;;22.40;14.13;98285.38;5009041;28;945;-77
2022/01/26 09:34:54;;;;;;;;;;;;;;;22.33;14.10;98290.00;4968552;29;1886;-78
2022/01/26 09:37:20;;;;;;;;;;;;;;;22.32;14.05;98296.88;4971039;29;946;-77
2022/01/26 09:39:46;;;;;;;;;;;;;;;21.94;14.17;98295.75;4968470;29;882;-77
2022/01/26 09:42:11;;;;;;;;;;;;;;;22.35;13.82;98293.16;4970547;29;990;-78
2022/01/26 09:44:37;;;;;;;;;;;;;;;22.21;14.17;98282.19;4968562;28;1723;-77
2022/01/26 09:47:03;;;;;;;;;;;;;;;22.40;14.10;98285.38;4970775;29;1011;-77
2022/01/26 09:49:32;;;;;;;;;;;;;;;22.40;13.91;98274.81;4969739;29;1060;-77
2022/01/26 09:52:02;;;;;;;;;;;;;;;22.35;13.89;98276.16;4955442;28;1985;-77
2022/01/26 09:54:30;;;;;;;;;;;;;;;21.68;14.45;98270.03;4964415;28;987;-77
2022/01/26 09:57:00;;;;;;;;;;;;;;;22.25;14.11;98280.06;4951402;29;1026;-77
2022/01/26 09:59:26;;;;;;;;;;;;;;;22.24;14.12;98272.78;4976308;28;1781;-78
2022/01/26 10:01:51;;;;;;;;;;;;;;;22.00;14.54;98260.00;4970232;29;986;-77
2022/01/26 10:04:28;;;;;;;;;;;;;;;22.43;13.94;98268.25;4984237;28;963;-77
2022/01/26 10:07:00;;;;;;;;;;;;;;;22.22;14.19;98269.59;5025457;28;981;-77
2022/01/26 10:09:56;;;;;;;;;;;;;;;22.21;14.10;98255.88;5052096;28;939;-77
2022/01/26 10:17:41;;;;;;;;;;;;;;;22.21;14.18;98256.66;5064855;28;1569;-78
2022/01/26 10:20:09;;;;;;;;;;;;;;;22.21;14.25;98255.88;5049282;28;1216;-77
2022/01/26 10:22:34;;;;;;;;;;;;;;;22.39;13.69;98252.59;5066642;28;1696;-77
2022/01/26 10:25:10;;;;;;;;;;;;;;;22.13;14.14;98246.75;5007279;28;988;-77
2022/01/26 10:27:36;;;;;;;;;;;;;;;21.82;14.59;98258.41;5007768;28;986;-77
2022/01/26 10:30:04;;;;;;;;;;;;;;;22.04;14.33;98252.22;5006376;28;1981;-78
2022/01/26 10:32:36;;;;;;;;;;;;;;;22.18;14.14;98257.56;4969719;29;1034;-77
2022/01/26 10:35:02;;;;;;;;;;;;;;;22.29;14.10;98248.78;4967030;29;917;-78
2022/01/26 10:37:28;;;;;;;;;;;;;;;21.75;14.32;98247.22;4950517;29;1762;-77
2022/01/26 10:39:57;;;;;;;;;;;;;;;21.98;14.37;98249.13;4948052;29;1008;-77
2022/01/26 10:42:24;;;;;;;;;;;;;;;22.19;14.12;98242.16;4931044;29;948;-77
2022/01/26 10:47:24;;;;;;;;;;;;;;;21.95;14.32;98249.19;4880805;29;975;-77
2022/01/26 10:50:18;;;;;;;;;;;;;;;21.93;14.33;98246.00;4872948;29;1977;-77
2022/01/26 10:52:41;;;;;;;;;;;;;;;22.22;14.17;98241.25;4911120;29;1821;-77
2022/01/26 10:55:07;;;;;;;;;;;;;;;22.17;14.32;98243.81;4915656;29;1017;-77
2022/01/26 10:57:34;;;;;;;;;;;;;;;21.97;14.34;98244.69;4949637;29;1002;-77
2022/01/26 11:00:01;;;;;;;;;;;;;;;21.87;14.43;98233.63;4946909;29;964;-77
2022/01/26 11:02:33;;;;;;;;;;;;;;;22.36;14.04;98237.25;4950346;29;974;-77
2022/01/26 11:04:58;;;;;;;;;;;;;;;22.32;13.79;98234.50;5002099;28;1678;-77
2022/01/26 11:07:35;;;;;;;;;;;;;;;22.33;13.85;98236.13;4988695;28;903;-77
2022/01/26 11:10:01;;;;;;;;;;;;;;;22.07;14.26;98234.31;4985529;28;1988;-76
2022/01/26 11:12:27;;;;;;;;;;;;;;;22.03;14.29;98233.63;4988115;28;870;-77
2022/01/26 11:14:56;;;;;;;;;;;;;;;22.41;13.88;98224.59;4982793;28;1096;-77
2022/01/26 11:17:26;;;;;;;;;;;;;;;22.35;14.04;98227.97;4968369;28;1049;-77
2022/01/26 11:19:52;;;;;;;;;;;;;;;22.50;13.83;98233.25;4963336;29;1525;-78
2022/01/26 11:22:25;;;;;;;;;;;;;;;22.26;14.20;98229.81;4950068;29;1052;-77
2022/01/26 11:24:50;;;;;;;;;;;;;;;21.65;14.36;98228.44;4947164;29;987;-78
2022/01/26 11:27:16;;;;;;;;;;;;;;;22.31;13.85;98226.47;4949371;29;923;-76
2022/01/26 11:29:45;;;;;;;;;;;;;;;22.27;13.83;98226.53;4960103;28;1054;-77
2022/01/26 11:32:29;;;;;;;;;;;;;;;22.25;13.85;98217.69;4987850;28;1891;-77
2022/01/26 11:34:55;;;;;;;;;;;;;;;22.31;13.95;98201.75;5009805;28;1861;-77
2022/01/26 11:37:36;;;;;;;;;;;;;;;22.41;13.91;98210.41;5026650;28;957;-77
2022/01/26 11:45:17;;;;;;;;;;;;;;;22.34;13.72;98191.56;5021415;28;1829;-77
2022/01/26 11:47:44;;;;;;;;;;;;;;;22.54;13.82;98194.28;5006173;28;894;-76
2022/01/26 11:50:14;;;;;;;;;;;;;;;22.33;13.98;98190.78;5005100;28;1892;-78
2022/01/26 11:52:40;;;;;;;;;;;;;;;22.34;13.93;98198.03;5007077;28;975;-78
2022/01/26 11:55:22;;;;;;;;;;;;;;;22.54;13.86;98185.75;4985631;28;1737;-78
2022/01/26 11:57:51;;;;;;;;;;;;;;;22.21;14.03;98193.50;4967459;29;959;-77
2022/01/26 12:00:32;;;;;;;;;;;;;;;22.44;13.64;98193.31;4972923;28;1042;-77
2022/01/26 12:02:58;;;;;;;;;;;;;;;22.47;13.86;98189.56;4986949;28;906;-77
2022/01/26 12:05:25;;;;;;;;;;;;;;;22.60;13.75;98183.97;4986783;28;924;-77
2022/01/26 12:07:50;;;;;;;;;;;;;;;22.81;13.55;98180.53;4987157;28;986;-78
2022/01/26 12:10:29;;;;;;;;;;;;;;;23.01;13.18;98190.94;4986311;28;1981;-77
2022/01/26 12:13:01;;;;;;;;;;;;;;;21.76;14.19;98180.84;4986642;28;1067;-77
2022/01/26 12:15:27;;;;;;;;;;;;;;;22.01;14.25;98190.75;4981798;28;1110;-78
2022/01/26 12:18:12;;;;;;;;;;;;;;;22.87;13.55;98177.94;4986737;28;1007;-77
2022/01/26 12:34:38;;;;;;;;;;;;;;;22.59;13.66;98169.00;5004607;28;943;-77
2022/01/26 12:45:17;;;;;;;;;;;;;;;22.22;13.99;98178.09;4965815;29;939;-77
2022/01/26 12:47:43;;;;;;;;;;;;;;;22.31;14.02;98166.94;5010420;28;957;-78
2022/01/26 12:50:08;;;;;;;;;;;;;;;22.35;14.01;98164.81;4970444;29;1950;-77
2022/01/26 12:52:34;;;;;;;;;;;;;;;22.38;13.82;98146.09;5010796;28;961;-77
2022/01/26 12:54:59;;;;;;;;;;;;;;;22.23;13.75;98168.38;5007628;28;1805;-78
2022/01/26 12:57:25;;;;;;;;;;;;;;;22.32;13.95;98160.00;4992614;28;1859;-78
2022/01/26 13:00:00;;;;;;;;;;;;;;;22.38;13.65;98154.59;4999713;28;1749;-78
2022/01/26 13:02:25;;;;;;;;;;;;;;;22.34;13.84;98164.00;5011241;28;982;-78
2022/01/26 13:04:58;;;;;;;;;;;;;;;22.16;13.82;98174.22;5008991;28;952;-77
2022/01/26 13:07:23;;;;;;;;;;;;;;;22.47;13.62;98166.09;5008165;28;934;-77
2022/01/26 13:09:49;;;;;;;;;;;;;;;22.34;13.72;98164.00;4949042;29;1738;-77
2022/01/26 13:12:16;;;;;;;;;;;;;;;22.06;14.21;98174.00;4948029;28;1898;-77
2022/01/26 13:14:47;;;;;;;;;;;;;;;22.21;14.05;98177.31;4989324;28;1078;-78
2022/01/26 13:23:09;;;;;;;;;;;;;;;21.83;14.23;98177.03;4959250;28;911;-78
2022/01/26 13:28:31;;;;;;;;;;;;;;;22.73;13.49;98181.16;5035881;28;1205;-77
2022/01/26 13:38:55;;;;;;;;;;;;;;;22.34;13.62;98178.19;5051228;28;1841;-78
2022/01/26 13:57:39;;;;;;;;;;;;;;;21.55;14.43;98187.00;4951549;29;974;-77
2022/01/26 13:59:59;;;;;;;;;;;;;;;21.42;14.64;98183.28;4949239;29;1035;-78
2022/01/26 14:02:29;;;;;;;;;;;;;;;22.39;13.85;98182.53;4932027;29;924;-77
2022/01/26 14:04:54;;;;;;;;;;;;;;;23.31;12.97;98179.09;4911120;29;1018;-77
2022/01/26 14:07:19;;;;;;;;;;;;;;;22.63;13.51;98188.72;4912893;29;964;-78
2022/01/26 14:09:45;;;;;;;;;;;;;;;22.31;14.04;98187.56;4895363;29;1783;-78
2022/01/26 14:12:13;;;;;;;;;;;;;;;21.95;14.29;98186.88;4894547;29;1915;-78
2022/01/26 14:14:44;;;;;;;;;;;;;;;22.73;13.58;98196.16;4876858;29;1062;-78
2022/01/26 14:17:24;;;;;;;;;;;;;;;23.15;13.29;98199.03;4895284;29;972;-77
2022/01/26 14:19:55;;;;;;;;;;;;;;;22.63;13.65;98197.25;4891273;29;1004;-78
2022/01/26 14:27:42;;;;;;;;;;;;;;;22.37;13.59;98202.00;4937174;29;1003;-77
2022/01/26 14:30:35;;;;;;;;;;;;;;;22.41;14.03;98196.25;4948503;29;1910;-77
2022/01/26 14:36:20;;;;;;;;;;;;;;;22.26;13.85;98196.59;4970749;29;1488;-77
2022/01/26 14:52:15;;;;;;;;;;;;;;;22.34;14.08;98203.69;4931799;29;1981;-77
2022/01/26 15:35:06;;;;;;;;;;;;;;;22.41;14.10;98219.72;4896455;29;1029;-78
2022/01/26 15:40:46;;;;;;;;;;;;;;;22.41;14.09;98224.59;4854896;29;1719;-77
2022/01/26 15:43:34;;;;;;;;;;;;;;;22.40;14.01;98229.47;4871972;29;1007;-78
2022/01/26 15:48:48;;;;;;;;;;;;;;;22.30;14.08;98233.38;4858889;29;956;-78
2022/01/26 16:05:12;;;;;;;;;;;;;;;22.34;14.21;98249.06;4928358;29;1140;-78
2022/01/26 18:17:31;;;;;;;;;;;;;;;21.99;15.19;98289.56;5012643;28;923;-78
2022/01/26 18:51:37;;;;;;;;;;;;;;;22.29;15.22;98308.31;4859547;29;1963;-78
2022/01/26 18:54:03;;;;;;;;;;;;;;;22.15;15.39;98308.66;4872660;29;1415;-77
2022/01/26 18:56:29;;;;;;;;;;;;;;;22.33;15.28;98304.16;4880148;29;955;-78
2022/01/26 18:58:55;;;;;;;;;;;;;;;22.48;15.11;98307.41;4890511;29;1777;-77
2022/01/26 19:01:20;;;;;;;;;;;;;;;21.97;15.52;98303.41;4874062;29;1340;-77
2022/01/26 19:03:46;;;;;;;;;;;;;;;22.68;14.54;98307.31;4871878;29;1068;-78
2022/01/26 19:06:12;;;;;;;;;;;;;;;22.66;14.88;98306.19;4876602;29;981;-77
2022/01/26 19:08:39;;;;;;;;;;;;;;;22.32;15.09;98308.22;4889819;29;889;-77
2022/01/26 19:11:08;;;;;;;;;;;;;;;22.21;15.31;98304.84;4877327;29;1961;-77
2022/01/26 19:13:33;;;;;;;;;;;;;;;22.06;15.24;98303.56;4889883;29;954;-77
2022/01/26 19:16:06;;;;;;;;;;;;;;;21.88;15.62;98306.03;4877408;29;1062;-77
2022/01/26 19:18:51;;;;;;;;;;;;;;;22.02;15.46;98305.69;4889686;29;919;-78
2022/01/26 19:23:58;;;;;;;;;;;;;;;22.63;14.74;98299.34;4955549;28;914;-77
2022/01/26 19:26:31;;;;;;;;;;;;;;;22.16;15.37;98294.03;4988011;28;1147;-77
2022/01/26 19:29:07;;;;;;;;;;;;;;;22.15;15.20;98305.81;4985813;28;996;-77
2022/01/26 19:40:32;;;;;;;;;;;;;;;21.85;15.65;98300.00;5048627;28;1842;-77
2022/01/26 19:50:51;;;;;;;;;;;;;;;22.40;15.37;98297.50;5067237;28;1879;-76
2022/01/26 19:53:17;;;;;;;;;;;;;;;22.47;15.30;98290.84;5063379;28;915;-78
2022/01/26 19:55:43;;;;;;;;;;;;;;;22.19;15.41;98293.16;5066105;28;860;-77
2022/01/26 19:58:08;;;;;;;;;;;;;;;22.00;15.50;98294.00;5064154;28;939;-77
2022/01/26 20:00:38;;;;;;;;;;;;;;;22.17;15.50;98298.47;5047895;28;1669;-77
2022/01/26 20:03:04;;;;;;;;;;;;;;;22.49;14.96;98300.53;5063953;28;1176;-78
2022/01/26 20:05:33;;;;;;;;;;;;;;;22.33;14.99;98298.50;5015909;28;986;-77
2022/01/26 20:08:04;;;;;;;;;;;;;;;22.50;15.03;98290.78;5065056;28;976;-78
2022/01/26 20:10:33;;;;;;;;;;;;;;;21.99;15.59;98300.91;5054191;28;1910;-77
2022/01/26 20:13:04;;;;;;;;;;;;;;;22.24;15.31;98300.34;5047452;28;1561;-78
2022/01/26 20:15:30;;;;;;;;;;;;;;;22.22;15.24;98303.59;5065521;28;1654;-78
2022/01/26 20:17:56;;;;;;;;;;;;;;;22.38;15.06;98299.97;5062349;28;986;-77
2022/01/26 20:20:22;;;;;;;;;;;;;;;21.74;15.94;98302.28;5055832;28;1712;-77
2022/01/26 20:22:47;;;;;;;;;;;;;;;21.45;16.05;98312.63;5045518;28;1076;-78